This is the latest recevied weather packets stored in our database for station/object W3JGB. If no packets are shown the sender has not sent any weather packets the latest 1 day(s).
| Time | Temp. | Humidity | Pressure | Rain* | Wind** | Luminosity | Snow |
|---|---|---|---|---|---|---|---|
| 1778029895 | 15.56° C | 89% | 1007.7 hPa | 0 mm | 0 m/s | 0 W/m² | - |
| 1778029594 | 15.56° C | 88% | 1007.7 hPa | 0 mm | 0 m/s | 0 W/m² | - |
| 1778029291 | 15.56° C | 88% | 1007.7 hPa | 0 mm | 0 m/s | 0 W/m² | - |
| 1778028987 | 16.11° C | 86% | 1007.5 hPa | 0 mm | 0 m/s | 0 W/m² | - |
| 1778028684 | 16.11° C | 86% | 1007.6 hPa | 0 mm | 0 m/s | 0 W/m² | - |
| 1778028381 | 16.67° C | 85% | 1007.6 hPa | 0 mm | 0 m/s | 0 W/m² | - |
| 1778028078 | 16.67° C | 84% | 1007.6 hPa | 0 mm | 0 m/s | 0 W/m² | - |
| 1778027774 | 16.67° C | 83% | 1007.4 hPa | 0 mm | 0 m/s | 0 W/m² | - |
| 1778027470 | 17.22° C | 81% | 1007.2 hPa | 0 mm | 0 m/s | 0 W/m² | - |
| 1778027166 | 17.22° C | 81% | 1007.5 hPa | 0 mm | 0 m/s | 0 W/m² | - |
| 1778026862 | 17.78° C | 81% | 1007.2 hPa | 0 mm | 0 m/s | 0 W/m² | - |
| 1778026559 | 17.78° C | 81% | 1007.2 hPa | 0 mm | 0 m/s | 0 W/m² | - |
| 1778026256 | 18.33° C | 81% | 1006.9 hPa | 0 mm | 0 m/s | 0 W/m² | - |
| 1778025953 | 18.33° C | 79% | 1007.1 hPa | 0 mm | 0 m/s | 0 W/m² | - |
| 1778025651 | 18.33° C | 79% | 1007.1 hPa | 0 mm | 0 m/s | 2 W/m² | - |
| 1778025349 | 18.89° C | 77% | 1007.1 hPa | 0 mm | 0 m/s | 3 W/m² | - |
| 1778025045 | 18.89° C | 75% | 1007 hPa | 0 mm | 0 m/s | 6 W/m² | - |
| 1778024742 | 19.44° C | 75% | 1006.9 hPa | 0 mm | 0 m/s | 7 W/m² | - |
| 1778024439 | 19.44° C | 75% | 1007 hPa | 0 mm | 0 m/s | 9 W/m² | - |
| 1778024136 | 20° C | 73% | 1006.9 hPa | 0 mm | 0 m/s | 12 W/m² | - |
| 1778023834 | 20° C | 73% | 1006.9 hPa | 0 mm | 0 m/s | 15 W/m² | - |
| 1778023532 | 20° C | 72% | 1006.8 hPa | 0 mm | 0 m/s | 18 W/m² | - |
| 1778023229 | 20.56° C | 71% | 1006.6 hPa | 0 mm | 0 m/s | 24 W/m² | - |
| 1778022926 | 20.56° C | 70% | 1006.7 hPa | 0 mm | 0 m/s | 26 W/m² | - |
| 1778022624 | 20.56° C | 70% | 1006.8 hPa | 0 mm | 0.45 m/s, 357° | 22 W/m² | - |
* Rain latest hour (hover to see other rain measurements)
** Current wind speed in m/s (hover to see current wind gust speed)